Time;durP1;ratioP1;P1;durP2;ratioP2;P2;SDS_P1;SDS_P2;PMS_P1;PMS_P2;Temp;Humidity;BMP_temperature;BMP_pressure;BME280_temperature;BME280_humidity;BME280_pressure;Samples;Min_cycle;Max_cycle;Signal;HPM_P1;HPM_P2
2022/03/18 00:02:03;;;;;;;50.45;33.85;;;9.00;81.70;;;;;;5066045;28;20546;-78
2022/03/18 00:04:29;;;;;;;49.30;31.77;;;8.90;81.30;;;;;;5058098;28;20507;-77
2022/03/18 00:06:55;;;;;;;48.95;32.08;;;8.90;81.50;;;;;;5078752;28;20029;-78
2022/03/18 00:09:21;;;;;;;48.17;31.05;;;8.80;81.50;;;;;;5079838;28;20031;-78
2022/03/18 00:11:47;;;;;;;49.38;31.25;;;8.80;82.00;;;;;;5080608;28;20427;-80
2022/03/18 00:14:14;;;;;;;48.75;31.02;;;8.90;81.80;;;;;;5061630;28;20027;-78
2022/03/18 00:16:40;;;;;;;46.10;29.15;;;8.80;81.80;;;;;;5078797;28;20028;-78
2022/03/18 00:19:06;;;;;;;42.25;27.83;;;8.80;81.50;;;;;;5078155;28;20388;-78
2022/03/18 00:21:32;;;;;;;43.78;29.67;;;8.70;81.50;;;;;;5078746;28;20027;-79
2022/03/18 00:23:58;;;;;;;45.05;29.30;;;8.80;81.80;;;;;;5077620;28;20066;-78
2022/03/18 00:26:23;;;;;;;46.65;29.83;;;8.90;81.30;;;;;;5077798;28;20055;-78
2022/03/18 00:28:49;;;;;;;46.85;30.05;;;8.80;81.20;;;;;;5081217;28;20080;-78
2022/03/18 00:31:15;;;;;;;42.28;28.75;;;9.00;81.30;;;;;;5061866;28;20082;-79
2022/03/18 00:33:40;;;;;;;45.88;30.33;;;8.80;80.90;;;;;;5081035;28;20112;-79
2022/03/18 00:36:06;;;;;;;45.42;28.45;;;8.80;81.20;;;;;;5063067;28;20020;-77
2022/03/18 00:38:32;;;;;;;47.10;29.83;;;8.80;81.40;;;;;;5058031;28;20032;-79
2022/03/18 00:40:58;;;;;;;41.90;27.58;;;8.80;81.60;;;;;;5077978;28;20111;-78
2022/03/18 00:43:23;;;;;;;44.97;26.33;;;8.80;81.40;;;;;;5079200;28;20039;-78
2022/03/18 00:45:49;;;;;;;43.58;27.27;;;8.80;81.20;;;;;;5079795;28;20039;-79
2022/03/18 00:53:44;;;;;;;39.83;23.35;;;8.70;80.80;;;;;;5062177;28;20031;-79
2022/03/18 00:56:09;;;;;;;40.30;23.00;;;8.60;81.00;;;;;;5077315;28;20224;-81
2022/03/18 00:58:35;;;;;;;37.13;22.02;;;8.70;81.00;;;;;;5079417;28;20024;-80
2022/03/18 01:01:01;;;;;;;33.50;21.95;;;8.60;81.10;;;;;;5087154;28;20060;-80
2022/03/18 01:03:27;;;;;;;35.65;21.90;;;8.60;81.40;;;;;;5084803;28;20031;-79
2022/03/18 01:05:52;;;;;;;35.63;21.85;;;8.60;80.90;;;;;;5087049;28;20017;-79
2022/03/18 01:08:18;;;;;;;35.67;22.75;;;8.60;81.10;;;;;;5088353;28;20075;-79
2022/03/18 01:10:44;;;;;;;36.85;20.75;;;8.60;81.50;;;;;;5088386;28;20063;-79
2022/03/18 01:13:10;;;;;;;33.53;19.70;;;8.60;81.10;;;;;;5087290;28;20031;-80
2022/03/18 01:15:35;;;;;;;28.80;18.75;;;8.50;80.80;;;;;;5066643;28;20099;-80
2022/03/18 01:18:02;;;;;;;31.92;19.15;;;8.50;80.90;;;;;;5081732;28;20052;-80
2022/03/18 01:20:29;;;;;;;40.28;21.10;;;8.50;81.00;;;;;;5079196;28;20028;-79
2022/03/18 01:22:55;;;;;;;34.47;19.55;;;8.50;80.90;;;;;;5079348;28;20401;-79
2022/03/18 01:25:20;;;;;;;37.70;18.88;;;8.50;81.10;;;;;;5080208;28;20020;-79
2022/03/18 01:27:46;;;;;;;32.42;19.15;;;8.50;80.60;;;;;;5079342;28;20024;-79
2022/03/18 01:30:16;;;;;;;31.55;18.90;;;8.50;80.40;;;;;;5060780;28;20522;-79
2022/03/18 01:32:42;;;;;;;36.05;21.45;;;8.50;80.30;;;;;;5061158;28;20050;-79
2022/03/18 01:35:08;;;;;;;32.30;19.40;;;8.40;80.80;;;;;;5078930;28;20025;-79
2022/03/18 01:37:33;;;;;;;30.42;18.73;;;8.30;80.80;;;;;;5079049;28;20028;-79
2022/03/18 01:39:59;;;;;;;31.75;20.38;;;8.40;80.90;;;;;;5102232;23;20438;-73
2022/03/18 01:42:25;;;;;;;30.95;18.10;;;8.40;81.50;;;;;;5065229;28;20565;-74
2022/03/18 01:44:51;;;;;;;34.13;19.30;;;8.40;81.30;;;;;;5060768;28;20025;-74
2022/03/18 01:47:17;;;;;;;32.90;17.77;;;8.40;80.70;;;;;;5070423;28;20447;-73
2022/03/18 01:49:43;;;;;;;31.00;19.75;;;8.30;80.90;;;;;;5040709;28;20526;-74
2022/03/18 01:52:10;;;;;;;30.60;18.80;;;8.30;81.10;;;;;;5071314;28;20506;-75
2022/03/18 01:54:47;;;;;;;29.98;17.77;;;8.30;81.30;;;;;;5064548;28;20032;-74
2022/03/18 01:57:15;;;;;;;33.08;18.95;;;8.30;81.20;;;;;;5056919;28;20028;-74
2022/03/18 01:59:41;;;;;;;32.35;18.98;;;8.30;81.60;;;;;;5052073;28;20033;-75
2022/03/18 02:02:06;;;;;;;37.03;19.70;;;8.30;81.40;;;;;;5043871;28;20377;-74
2022/03/18 02:04:32;;;;;;;33.22;19.52;;;8.20;81.50;;;;;;5063066;28;20029;-74
2022/03/18 02:06:59;;;;;;;32.28;18.77;;;8.20;81.40;;;;;;5070507;28;20025;-71
2022/03/18 02:09:25;;;;;;;30.52;19.30;;;8.20;81.50;;;;;;5068264;28;20024;-74
2022/03/18 02:11:51;;;;;;;41.90;20.42;;;8.20;81.70;;;;;;5081833;28;20017;-74
2022/03/18 02:14:33;;;;;;;32.13;19.20;;;8.20;81.50;;;;;;5080077;28;20024;-73
2022/03/18 02:16:59;;;;;;;34.13;20.08;;;8.20;81.40;;;;;;5072390;28;20044;-72
2022/03/18 02:19:24;;;;;;;35.20;21.13;;;8.10;81.40;;;;;;5073417;28;20024;-73
2022/03/18 02:21:53;;;;;;;36.15;19.80;;;8.10;82.10;;;;;;5039029;28;20020;-75
2022/03/18 02:24:19;;;;;;;39.10;20.83;;;8.10;82.30;;;;;;5044970;28;20024;-73
2022/03/18 02:26:50;;;;;;;33.65;19.50;;;8.10;81.60;;;;;;5064688;28;20074;-73
2022/03/18 02:29:18;;;;;;;36.90;20.35;;;8.10;81.60;;;;;;5036817;28;20043;-74
2022/03/18 02:31:44;;;;;;;39.35;19.88;;;8.20;81.60;;;;;;5067252;28;20033;-74
2022/03/18 02:34:09;;;;;;;36.92;21.25;;;8.10;81.50;;;;;;5041552;28;20113;-73
2022/03/18 02:36:35;;;;;;;32.60;19.55;;;8.10;81.70;;;;;;5060134;28;20032;-74
2022/03/18 02:39:01;;;;;;;31.85;19.98;;;8.00;82.20;;;;;;5048122;28;20025;-73
2022/03/18 02:41:26;;;;;;;33.40;20.13;;;8.10;82.10;;;;;;5054610;28;20500;-73
2022/03/18 02:43:52;;;;;;;31.23;19.30;;;8.20;81.80;;;;;;5066101;28;20029;-74
2022/03/18 02:46:17;;;;;;;34.60;19.60;;;8.20;81.60;;;;;;5060360;28;20387;-74
2022/03/18 02:48:43;;;;;;;34.40;20.45;;;8.20;81.50;;;;;;5058490;28;20025;-74
2022/03/18 02:51:09;;;;;;;34.17;20.13;;;8.20;81.20;;;;;;5067225;28;20020;-74
2022/03/18 02:53:36;;;;;;;34.20;20.15;;;8.20;81.40;;;;;;5054947;28;20029;-75
2022/03/18 02:56:04;;;;;;;33.55;19.77;;;8.20;81.50;;;;;;5065973;28;20028;-74
2022/03/18 02:58:29;;;;;;;33.05;21.27;;;8.30;81.40;;;;;;5065934;28;20025;-75
2022/03/18 03:00:55;;;;;;;34.47;20.27;;;8.20;81.50;;;;;;5061440;28;20166;-74
2022/03/18 03:03:21;;;;;;;37.45;20.75;;;8.10;81.60;;;;;;5071799;28;20063;-73
2022/03/18 03:08:31;;;;;;;37.72;21.50;;;8.00;81.90;;;;;;5064303;28;20070;-73
2022/03/18 03:10:57;;;;;;;35.40;19.95;;;8.00;81.80;;;;;;5069543;28;20029;-74
2022/03/18 03:13:24;;;;;;;33.35;19.85;;;8.00;82.00;;;;;;5058331;28;20056;-75
2022/03/18 03:15:50;;;;;;;42.03;21.85;;;8.00;82.10;;;;;;5069786;28;20581;-75
2022/03/18 03:18:15;;;;;;;41.30;22.40;;;8.00;81.80;;;;;;5063347;28;20028;-75
2022/03/18 03:20:41;;;;;;;39.53;21.88;;;8.00;81.70;;;;;;5062514;28;20037;-73
2022/03/18 03:23:07;;;;;;;40.75;22.02;;;8.00;82.10;;;;;;5070718;28;20028;-75
2022/03/18 03:25:33;;;;;;;36.75;22.90;;;8.00;81.70;;;;;;5058325;28;20025;-74
2022/03/18 03:27:58;;;;;;;35.88;21.02;;;8.00;82.00;;;;;;5068104;28;20013;-73
2022/03/18 03:30:24;;;;;;;38.83;21.85;;;8.00;81.90;;;;;;5064509;28;20097;-73
2022/03/18 03:32:50;;;;;;;43.03;23.20;;;8.00;82.00;;;;;;5061193;28;20029;-73
2022/03/18 03:35:17;;;;;;;39.35;23.17;;;7.90;81.50;;;;;;5053104;28;20051;-75
2022/03/18 03:37:43;;;;;;;37.58;21.17;;;7.90;82.10;;;;;;5058735;28;20058;-74
2022/03/18 03:40:13;;;;;;;36.67;22.65;;;8.00;82.10;;;;;;5066581;28;20055;-74
2022/03/18 03:42:42;;;;;;;37.22;22.92;;;8.00;82.10;;;;;;5066680;28;20024;-74
2022/03/18 03:45:15;;;;;;;40.63;22.85;;;7.90;82.00;;;;;;5058805;28;20021;-74
2022/03/18 03:47:41;;;;;;;41.78;23.10;;;7.90;82.30;;;;;;5042501;28;20399;-74
2022/03/18 03:50:08;;;;;;;42.15;24.88;;;7.90;82.50;;;;;;5066980;28;20480;-74
2022/03/18 03:52:35;;;;;;;43.15;24.40;;;7.90;82.30;;;;;;5065565;28;20036;-74
2022/03/18 03:55:02;;;;;;;43.35;23.65;;;7.90;82.30;;;;;;5059256;28;20057;-73
2022/03/18 03:57:27;;;;;;;46.78;24.33;;;7.90;82.30;;;;;;5070747;28;20051;-73
2022/03/18 03:59:53;;;;;;;40.75;22.65;;;7.90;82.80;;;;;;5059524;28;20480;-73
2022/03/18 04:02:20;;;;;;;37.20;21.17;;;7.90;82.40;;;;;;5044391;28;20150;-74
2022/03/18 04:04:47;;;;;;;37.80;21.05;;;7.90;82.00;;;;;;5067390;28;20458;-74
2022/03/18 04:07:12;;;;;;;36.45;20.58;;;7.90;81.80;;;;;;5056898;28;20382;-74
2022/03/18 04:09:38;;;;;;;33.33;19.08;;;7.90;82.20;;;;;;5058397;28;20023;-75
2022/03/18 04:12:04;;;;;;;33.00;20.98;;;7.80;82.00;;;;;;5067253;28;20025;-74
2022/03/18 04:14:29;;;;;;;38.35;21.15;;;7.80;82.40;;;;;;5065450;28;20040;-75
2022/03/18 04:16:55;;;;;;;35.80;20.98;;;7.80;82.20;;;;;;5059743;28;20033;-74
2022/03/18 04:19:20;;;;;;;40.28;22.75;;;7.80;82.30;;;;;;5070025;28;20043;-73
2022/03/18 04:21:46;;;;;;;36.85;21.63;;;7.90;82.60;;;;;;5040341;28;20116;-72
2022/03/18 04:24:11;;;;;;;38.90;20.55;;;7.80;82.40;;;;;;5065409;28;20021;-74
2022/03/18 04:26:37;;;;;;;34.35;21.20;;;7.90;82.50;;;;;;5065355;28;20021;-74
2022/03/18 04:29:02;;;;;;;38.15;21.45;;;7.80;82.70;;;;;;5040409;28;20025;-74
2022/03/18 04:31:31;;;;;;;40.42;22.08;;;7.80;82.70;;;;;;5070001;28;20029;-74
2022/03/18 04:33:56;;;;;;;43.95;24.05;;;7.80;82.40;;;;;;5059525;28;20028;-74
2022/03/18 04:36:22;;;;;;;39.50;22.77;;;7.80;82.70;;;;;;5045957;28;20021;-73
2022/03/18 04:38:48;;;;;;;39.90;23.10;;;7.80;82.60;;;;;;5066324;28;20028;-72
2022/03/18 04:41:13;;;;;;;43.15;23.83;;;7.70;82.70;;;;;;5056386;28;20021;-73
2022/03/18 04:43:40;;;;;;;39.63;24.23;;;7.70;83.10;;;;;;5051897;28;20021;-74
2022/03/18 04:46:05;;;;;;;43.38;23.25;;;7.80;82.90;;;;;;5042771;28;20021;-74
2022/03/18 04:48:31;;;;;;;43.30;23.40;;;7.80;82.30;;;;;;5044198;28;20385;-74
2022/03/18 04:50:57;;;;;;;40.47;24.15;;;7.80;82.30;;;;;;5067890;28;20033;-74
2022/03/18 04:53:23;;;;;;;39.80;22.20;;;7.80;82.20;;;;;;5038597;28;20059;-73
2022/03/18 04:55:49;;;;;;;40.28;23.48;;;7.80;82.40;;;;;;5068248;28;20369;-74
2022/03/18 04:58:14;;;;;;;38.15;22.17;;;7.80;82.60;;;;;;5061743;28;20059;-73
2022/03/18 05:00:40;;;;;;;41.67;24.05;;;7.70;82.60;;;;;;5043036;28;20396;-74
2022/03/18 05:03:06;;;;;;;36.90;22.85;;;7.80;82.20;;;;;;5068627;28;20027;-74
2022/03/18 05:05:32;;;;;;;40.65;24.35;;;7.70;82.50;;;;;;5056410;28;20069;-74
2022/03/18 05:07:57;;;;;;;40.40;23.60;;;7.70;82.50;;;;;;5066307;28;20016;-74
2022/03/18 05:10:24;;;;;;;47.03;24.42;;;7.60;82.90;;;;;;5044685;28;20497;-74
2022/03/18 05:12:50;;;;;;;48.10;26.25;;;7.60;83.10;;;;;;5059577;28;20033;-74
2022/03/18 05:15:16;;;;;;;37.78;23.25;;;7.70;82.80;;;;;;5051228;28;20020;-73
2022/03/18 05:17:49;;;;;;;41.40;23.98;;;7.70;82.60;;;;;;5056492;28;20158;-73
2022/03/18 05:20:14;;;;;;;49.10;25.42;;;7.70;82.50;;;;;;5063443;28;20392;-73
2022/03/18 05:22:40;;;;;;;44.25;24.70;;;7.60;82.50;;;;;;5064403;28;20024;-74
2022/03/18 05:25:05;;;;;;;44.47;24.38;;;7.70;82.50;;;;;;5056942;28;20035;-74
2022/03/18 05:27:31;;;;;;;46.35;24.42;;;7.70;82.50;;;;;;5068580;28;20380;-73
2022/03/18 05:29:57;;;;;;;43.30;25.50;;;7.70;82.40;;;;;;5058445;28;20480;-74
2022/03/18 05:32:22;;;;;;;44.85;27.42;;;7.70;82.40;;;;;;5062750;28;20476;-75
2022/03/18 05:34:48;;;;;;;43.95;27.35;;;7.60;82.20;;;;;;5065598;28;20070;-74
2022/03/18 05:37:14;;;;;;;47.90;25.02;;;7.60;82.20;;;;;;5055389;28;20029;-74
2022/03/18 05:39:39;;;;;;;47.65;27.20;;;7.60;82.30;;;;;;5068349;28;20112;-75
2022/03/18 05:42:05;;;;;;;45.42;26.25;;;7.50;82.20;;;;;;5059241;28;20048;-73
2022/03/18 05:44:31;;;;;;;49.22;27.70;;;7.60;81.90;;;;;;5061224;28;20029;-74
2022/03/18 05:46:56;;;;;;;46.22;26.95;;;7.60;81.90;;;;;;5048400;28;20554;-73
2022/03/18 05:49:22;;;;;;;41.45;26.13;;;7.60;82.10;;;;;;5055102;28;20036;-74
2022/03/18 05:51:51;;;;;;;45.20;28.50;;;7.60;81.40;;;;;;5066945;28;20029;-73
2022/03/18 05:54:17;;;;;;;43.03;27.02;;;7.60;81.50;;;;;;5061022;28;20111;-73
2022/03/18 05:56:54;;;;;;;46.80;28.77;;;7.60;81.70;;;;;;5059306;28;20112;-77
2022/03/18 05:59:28;;;;;;;43.05;28.15;;;7.60;81.20;;;;;;5067992;28;20063;-72
2022/03/18 06:01:56;;;;;;;43.92;28.13;;;7.70;81.40;;;;;;5057318;28;20017;-73
2022/03/18 06:04:23;;;;;;;43.45;28.80;;;7.80;80.80;;;;;;5062038;28;20020;-73
2022/03/18 06:06:49;;;;;;;46.53;28.98;;;7.80;80.40;;;;;;5064941;28;20056;-72
2022/03/18 06:12:00;;;;;;;52.72;31.67;;;8.00;80.40;;;;;;5064989;28;20403;-73
2022/03/18 06:14:27;;;;;;;52.83;31.10;;;7.90;79.60;;;;;;5059921;28;20025;-75
2022/03/18 06:16:56;;;;;;;50.67;31.85;;;7.90;79.50;;;;;;5056162;28;20102;-73
2022/03/18 06:19:23;;;;;;;51.65;30.73;;;7.90;79.50;;;;;;5066616;28;20494;-73
2022/03/18 06:21:49;;;;;;;53.38;31.90;;;7.90;79.70;;;;;;5054561;28;20043;-73
2022/03/18 06:24:17;;;;;;;51.70;33.15;;;7.90;79.00;;;;;;5060690;28;20411;-73
2022/03/18 06:26:43;;;;;;;58.22;33.83;;;7.90;79.40;;;;;;5062640;28;20108;-73
2022/03/18 06:29:09;;;;;;;53.28;31.38;;;7.90;78.80;;;;;;5054977;28;20108;-74
2022/03/18 06:31:35;;;;;;;56.35;33.22;;;8.00;78.80;;;;;;5048805;28;20029;-73
2022/03/18 06:34:02;;;;;;;56.83;33.80;;;7.90;79.20;;;;;;5058385;28;20024;-73
2022/03/18 06:36:28;;;;;;;58.05;38.00;;;8.00;78.80;;;;;;5061147;28;20025;-75
2022/03/18 06:38:54;;;;;;;58.08;35.95;;;8.00;77.10;;;;;;5065073;28;20021;-73
2022/03/18 06:41:20;;;;;;;59.47;37.10;;;8.10;76.90;;;;;;5036032;28;20025;-74
2022/03/18 06:43:47;;;;;;;62.47;36.67;;;8.30;76.00;;;;;;5066026;28;20031;-73
2022/03/18 06:46:14;;;;;;;61.80;37.53;;;8.30;75.40;;;;;;5059585;28;20024;-73
2022/03/18 06:48:40;;;;;;;57.28;37.65;;;8.40;74.70;;;;;;5059098;28;20078;-72
2022/03/18 06:51:06;;;;;;;58.88;36.08;;;8.40;74.20;;;;;;5048670;28;20033;-74
2022/03/18 06:53:34;;;;;;;59.65;36.60;;;8.40;74.60;;;;;;5054761;28;20056;-74
2022/03/18 06:56:00;;;;;;;57.47;38.08;;;8.40;73.70;;;;;;5064680;28;20029;-73
2022/03/18 06:58:29;;;;;;;60.28;37.13;;;8.40;75.00;;;;;;5060649;28;20031;-73
2022/03/18 07:00:55;;;;;;;55.95;36.15;;;8.30;73.80;;;;;;5057285;28;20455;-73
2022/03/18 07:03:21;;;;;;;57.60;36.55;;;8.30;74.20;;;;;;5049928;28;20020;-73
2022/03/18 07:05:46;;;;;;;56.55;35.58;;;8.40;74.60;;;;;;5055885;28;20031;-73
2022/03/18 07:08:12;;;;;;;50.30;33.83;;;8.50;74.30;;;;;;5062382;28;20516;-73
2022/03/18 07:10:38;;;;;;;57.67;36.50;;;8.60;74.10;;;;;;5062960;28;20514;-75
2022/03/18 07:13:04;;;;;;;57.25;34.17;;;8.70;74.00;;;;;;5055626;28;20032;-76
2022/03/18 07:15:29;;;;;;;57.28;35.47;;;8.80;72.90;;;;;;5067443;28;20111;-76
2022/03/18 07:17:55;;;;;;;52.20;32.80;;;9.00;72.50;;;;;;5038665;28;20447;-76
2022/03/18 07:20:22;;;;;;;52.40;33.72;;;9.00;72.30;;;;;;5061389;28;20021;-76
2022/03/18 07:23:08;;;;;;;55.03;33.92;;;9.20;72.00;;;;;;5064330;28;20020;-76
2022/03/18 07:25:39;;;;;;;55.85;33.25;;;9.30;70.90;;;;;;5054138;28;20025;-78
2022/03/18 07:28:08;;;;;;;55.85;32.60;;;9.50;70.30;;;;;;5045105;28;20029;-78
2022/03/18 07:30:35;;;;;;;51.67;32.67;;;9.80;67.80;;;;;;5062088;28;20036;-76
2022/03/18 07:33:00;;;;;;;47.97;31.20;;;9.80;68.50;;;;;;5059082;28;20036;-77
2022/03/18 07:35:26;;;;;;;46.80;31.65;;;10.40;66.90;;;;;;5067133;28;20021;-75
2022/03/18 07:37:52;;;;;;;62.95;40.05;;;10.80;65.30;;;;;;5055548;28;20035;-75
2022/03/18 07:40:21;;;;;;;59.97;38.30;;;11.00;64.90;;;;;;5062523;28;20037;-75
2022/03/18 07:42:49;;;;;;;50.47;30.83;;;11.20;63.90;;;;;;5065974;28;20035;-74
2022/03/18 07:45:22;;;;;;;55.35;33.92;;;11.10;63.00;;;;;;5039675;28;20029;-75
2022/03/18 07:47:49;;;;;;;62.20;37.80;;;10.90;63.60;;;;;;5059461;28;20408;-76
2022/03/18 07:50:20;;;;;;;75.45;46.08;;;10.80;64.00;;;;;;5062867;28;20025;-77
2022/03/18 07:52:50;;;;;;;56.20;34.45;;;10.80;64.70;;;;;;5056704;28;20201;-76
2022/03/18 07:55:18;;;;;;;69.00;41.83;;;10.90;63.90;;;;;;5043677;28;20024;-77
2022/03/18 07:57:43;;;;;;;55.80;34.75;;;11.00;64.20;;;;;;5072885;28;20066;-76
2022/03/18 08:00:11;;;;;;;61.58;37.58;;;11.10;63.70;;;;;;5060614;28;20132;-75
2022/03/18 08:02:38;;;;;;;75.60;46.35;;;11.00;63.90;;;;;;5066474;28;20025;-76
2022/03/18 08:05:04;;;;;;;110.68;64.88;;;10.80;64.70;;;;;;5067418;28;20036;-75
2022/03/18 08:07:29;;;;;;;129.73;73.72;;;10.80;65.30;;;;;;5057541;28;20029;-75
2022/03/18 08:09:55;;;;;;;75.75;45.03;;;10.70;65.10;;;;;;5070443;28;20021;-76
2022/03/18 08:12:20;;;;;;;68.70;39.35;;;10.70;64.30;;;;;;5060549;28;20021;-77
2022/03/18 08:14:46;;;;;;;107.72;61.72;;;10.90;64.20;;;;;;5063275;28;20047;-76
2022/03/18 08:17:12;;;;;;;83.25;50.55;;;10.90;64.60;;;;;;5067736;28;20024;-75
2022/03/18 08:19:37;;;;;;;73.10;46.38;;;11.10;64.20;;;;;;5057799;28;20446;-77
2022/03/18 08:22:04;;;;;;;86.38;53.22;;;11.50;62.50;;;;;;5063326;28;20017;-74
2022/03/18 08:24:31;;;;;;;63.47;39.40;;;11.70;61.60;;;;;;5066106;28;20219;-74
2022/03/18 08:26:56;;;;;;;82.35;50.72;;;11.70;61.20;;;;;;5047787;28;20111;-76
2022/03/18 08:29:22;;;;;;;57.88;36.80;;;11.60;61.10;;;;;;5058117;28;20108;-76
2022/03/18 08:31:48;;;;;;;89.78;56.53;;;11.60;60.80;;;;;;5070067;28;20111;-75
2022/03/18 08:34:15;;;;;;;165.90;85.32;;;11.50;62.10;;;;;;5041535;28;20062;-75
2022/03/18 08:36:40;;;;;;;82.95;49.08;;;11.20;62.50;;;;;;5046367;28;20098;-74
2022/03/18 08:39:06;;;;;;;59.88;34.80;;;11.20;62.60;;;;;;5048324;28;20483;-74
2022/03/18 08:41:31;;;;;;;107.03;61.85;;;11.20;62.60;;;;;;5038839;28;20496;-77
2022/03/18 08:43:57;;;;;;;45.88;29.67;;;11.40;63.00;;;;;;5052322;28;20461;-75
2022/03/18 08:46:23;;;;;;;78.95;47.20;;;11.30;61.40;;;;;;5060553;28;20054;-73
2022/03/18 08:48:48;;;;;;;42.70;29.00;;;11.50;61.60;;;;;;5062392;28;20027;-76
2022/03/18 08:51:18;;;;;;;49.25;30.65;;;11.40;60.40;;;;;;5071180;28;20024;-77
2022/03/18 08:53:43;;;;;;;82.07;49.88;;;11.30;61.50;;;;;;5060100;28;20016;-79
2022/03/18 08:56:09;;;;;;;47.20;30.42;;;11.50;61.70;;;;;;5061149;28;20106;-76
2022/03/18 08:58:34;;;;;;;46.58;29.02;;;11.90;58.90;;;;;;5075788;28;20045;-78
2022/03/18 09:01:00;;;;;;;46.28;28.60;;;11.90;59.20;;;;;;5055053;28;20045;-76
2022/03/18 09:03:25;;;;;;;46.42;30.27;;;11.70;59.10;;;;;;5065746;28;20080;-75
2022/03/18 09:05:51;;;;;;;87.95;47.45;;;11.20;59.30;;;;;;5071985;28;20033;-74
2022/03/18 09:08:16;;;;;;;46.60;31.08;;;11.40;60.80;;;;;;5059562;28;20115;-75
2022/03/18 09:10:42;;;;;;;89.45;49.53;;;11.80;59.20;;;;;;5045582;28;20056;-76
2022/03/18 09:13:08;;;;;;;63.97;38.53;;;12.20;58.90;;;;;;5066870;28;20425;-75
2022/03/18 09:15:33;;;;;;;53.17;32.30;;;12.70;58.00;;;;;;5038185;28;20119;-74
2022/03/18 09:17:59;;;;;;;106.45;59.13;;;13.50;55.20;;;;;;5068553;28;20492;-73
2022/03/18 09:20:25;;;;;;;84.60;49.22;;;14.10;54.80;;;;;;5062523;28;20036;-74
2022/03/18 09:22:51;;;;;;;102.90;58.13;;;14.50;53.30;;;;;;5063114;28;20082;-75
2022/03/18 09:25:16;;;;;;;42.78;29.15;;;14.40;53.20;;;;;;5070141;28;20111;-74
2022/03/18 09:27:42;;;;;;;47.72;29.70;;;14.20;52.50;;;;;;5059239;28;20029;-74
2022/03/18 09:30:09;;;;;;;41.53;28.60;;;13.90;53.00;;;;;;5075109;28;20108;-72
2022/03/18 09:32:35;;;;;;;45.00;29.35;;;13.10;52.40;;;;;;5063960;28;20033;-71
2022/03/18 09:35:01;;;;;;;50.13;30.15;;;12.10;55.50;;;;;;5060343;28;20056;-74
2022/03/18 09:37:26;;;;;;;44.38;30.40;;;11.50;58.30;;;;;;5068986;28;20040;-74
2022/03/18 09:39:52;;;;;;;40.80;27.73;;;11.70;58.30;;;;;;5055905;28;20105;-76
2022/03/18 09:42:18;;;;;;;42.63;28.73;;;12.30;57.00;;;;;;5066141;28;20101;-76
2022/03/18 09:44:43;;;;;;;43.67;30.20;;;12.60;55.70;;;;;;5062599;28;20548;-78
2022/03/18 09:47:10;;;;;;;50.25;31.55;;;12.80;56.70;;;;;;5058983;28;20033;-79
2022/03/18 09:49:36;;;;;;;86.18;49.83;;;13.00;54.40;;;;;;5051315;28;20048;-76
2022/03/18 09:52:05;;;;;;;70.80;42.65;;;13.10;56.20;;;;;;5056332;28;20056;-73
2022/03/18 09:54:32;;;;;;;54.20;32.30;;;13.30;55.30;;;;;;5067555;28;20068;-75
2022/03/18 09:56:59;;;;;;;81.07;48.75;;;13.20;54.70;;;;;;5063928;28;20503;-74
2022/03/18 09:59:27;;;;;;;82.65;48.30;;;13.40;55.40;;;;;;5055971;28;20492;-75
2022/03/18 10:02:30;;;;;;;69.85;42.35;;;13.50;54.40;;;;;;5068085;28;20352;-75
2022/03/18 10:05:08;;;;;;;60.42;38.53;;;13.80;54.20;;;;;;5049516;28;20017;-76
2022/03/18 10:07:34;;;;;;;63.25;37.88;;;14.00;53.10;;;;;;5043040;28;20039;-73
2022/03/18 10:10:15;;;;;;;71.63;43.63;;;13.80;52.30;;;;;;5041178;28;20032;-77
2022/03/18 10:12:42;;;;;;;;;;;13.20;53.30;;;;;;5068016;28;20024;-75
2022/03/18 10:15:15;;;;;;;50.13;30.08;;;12.90;55.60;;;;;;5067247;28;20427;-75
2022/03/18 10:17:49;;;;;;;40.78;27.60;;;13.00;54.50;;;;;;5037873;28;20399;-73
2022/03/18 10:20:42;;;;;;;118.93;68.53;;;13.00;53.60;;;;;;5066563;28;20061;-77
2022/03/18 10:23:16;;;;;;;40.35;26.20;;;12.70;56.60;;;;;;5066088;28;20070;-75
2022/03/18 10:25:52;;;;;;;84.65;49.28;;;12.60;54.90;;;;;;5056750;28;20024;-75
2022/03/18 10:28:32;;;;;;;133.85;77.30;;;12.60;56.50;;;;;;5065566;28;20530;-75
2022/03/18 10:31:22;;;;;;;146.88;79.53;;;12.70;57.30;;;;;;5063880;28;20035;-76
2022/03/18 10:39:26;;;;;;;68.00;39.95;;;13.00;56.10;;;;;;5066935;28;20115;-75
2022/03/18 10:41:52;;;;;;;121.78;67.47;;;13.00;55.40;;;;;;5054493;28;20036;-75
2022/03/18 10:44:18;;;;;;;39.85;26.40;;;13.00;56.40;;;;;;5065370;28;20028;-74
2022/03/18 10:46:44;;;;;;;58.20;33.28;;;12.90;53.50;;;;;;5061063;28;20487;-73
2022/03/18 10:49:10;;;;;;;51.88;32.53;;;12.60;55.20;;;;;;5057397;28;20031;-75
2022/03/18 10:51:37;;;;;;;62.17;35.60;;;12.80;55.00;;;;;;5067568;28;20024;-76
2022/03/18 10:54:04;;;;;;;49.45;30.38;;;12.90;54.90;;;;;;5055453;28;20364;-75
2022/03/18 10:56:52;;;;;;;56.10;36.33;;;12.80;55.10;;;;;;5061107;28;20530;-76
2022/03/18 10:59:19;;;;;;;79.10;47.60;;;12.70;54.70;;;;;;5056289;28;20029;-76
2022/03/18 11:01:46;;;;;;;90.55;50.65;;;12.80;56.60;;;;;;5067122;28;20099;-74
2022/03/18 11:04:15;;;;;;;50.53;31.88;;;13.00;56.50;;;;;;5056764;28;20013;-75
2022/03/18 11:07:29;;;;;;;43.22;26.98;;;13.20;54.30;;;;;;5061439;28;20021;-75
2022/03/18 11:12:31;;;;;;;46.25;28.67;;;12.00;55.50;;;;;;5059209;28;20063;-75
2022/03/18 11:14:58;;;;;;;55.78;34.35;;;11.90;55.70;;;;;;5041450;28;20025;-75
2022/03/18 11:17:24;;;;;;;71.88;42.40;;;11.80;57.60;;;;;;5056075;28;20025;-71
2022/03/18 11:19:54;;;;;;;59.90;35.63;;;12.10;59.10;;;;;;5070725;28;20040;-74
2022/03/18 11:22:22;;;;;;;56.85;32.35;;;12.30;58.30;;;;;;5043921;28;20034;-75
2022/03/18 11:24:49;;;;;;;43.97;27.98;;;12.60;57.00;;;;;;5046186;28;20100;-73
2022/03/18 11:27:16;;;;;;;93.90;54.67;;;12.80;54.60;;;;;;5068838;28;20522;-75
2022/03/18 11:29:42;;;;;;;90.95;54.08;;;12.90;56.20;;;;;;5040427;28;20403;-75
2022/03/18 11:32:14;;;;;;;50.33;29.15;;;12.60;56.00;;;;;;5070142;28;20009;-76
2022/03/18 11:34:56;;;;;;;47.88;29.45;;;12.20;56.40;;;;;;5063842;28;20395;-75
2022/03/18 11:37:23;;;;;;;62.45;36.78;;;12.10;57.60;;;;;;5059203;28;20126;-74
2022/03/18 11:39:48;;;;;;;81.88;46.80;;;12.70;58.80;;;;;;5052895;28;20509;-75
2022/03/18 11:42:22;;;;;;;63.75;38.45;;;13.20;57.20;;;;;;5043024;28;20048;-77
2022/03/18 11:44:55;;;;;;;50.60;31.42;;;13.50;55.30;;;;;;5065408;28;20426;-77
2022/03/18 11:47:30;;;;;;;41.05;26.40;;;13.40;54.20;;;;;;5076074;28;20040;-78
2022/03/18 11:49:57;;;;;;;61.25;36.70;;;13.50;54.60;;;;;;5062103;28;20020;-79
2022/03/18 11:52:22;;;;;;;65.70;39.22;;;13.40;55.90;;;;;;5062420;28;20067;-83
2022/03/18 11:55:06;;;;;;;66.25;41.47;;;13.40;55.30;;;;;;5070168;28;20422;-77
2022/03/18 11:57:45;;;;;;;80.28;46.20;;;13.20;56.00;;;;;;5074903;28;20379;-78
2022/03/18 12:00:33;;;;;;;37.72;25.40;;;13.30;56.70;;;;;;5046480;28;20107;-80
2022/03/18 12:03:04;;;;;;;40.88;26.85;;;13.30;54.10;;;;;;5064377;28;20659;-76
2022/03/18 12:05:31;;;;;;;43.05;26.77;;;13.40;54.20;;;;;;5075733;28;20021;-80
2022/03/18 12:07:59;;;;;;;49.60;31.15;;;13.20;54.80;;;;;;5043783;28;20368;-77
2022/03/18 12:10:41;;;;;;;39.10;25.42;;;13.20;55.20;;;;;;5049245;28;20025;-79
2022/03/18 12:13:06;;;;;;;38.78;26.15;;;13.00;54.60;;;;;;5068941;28;20032;-73
2022/03/18 12:15:39;;;;;;;55.40;32.38;;;12.80;55.10;;;;;;5058017;28;20472;-73
2022/03/18 12:18:05;;;;;;;40.83;27.17;;;12.80;56.80;;;;;;5051537;28;20103;-76
2022/03/18 12:20:32;;;;;;;49.40;29.88;;;13.00;55.90;;;;;;5044163;28;20115;-77
2022/03/18 12:23:02;;;;;;;37.65;24.88;;;13.00;55.80;;;;;;5062228;28;20529;-77
2022/03/18 12:25:28;;;;;;;71.05;42.10;;;12.90;54.70;;;;;;5070089;28;20031;-78
2022/03/18 12:27:55;;;;;;;130.55;72.53;;;13.00;56.30;;;;;;5057515;28;20020;-75
2022/03/18 12:30:24;;;;;;;72.45;43.72;;;13.30;56.80;;;;;;5048667;28;20029;-77
2022/03/18 12:32:54;;;;;;;118.35;64.07;;;13.60;54.50;;;;;;5046233;28;20021;-76
2022/03/18 12:35:26;;;;;;;73.70;45.25;;;14.00;54.50;;;;;;5058582;28;20029;-77
2022/03/18 12:38:09;;;;;;;40.20;27.92;;;14.00;52.60;;;;;;5051807;28;20040;-76
2022/03/18 12:40:37;;;;;;;66.38;40.50;;;14.10;51.10;;;;;;5061887;28;20024;-77
2022/03/18 12:43:03;;;;;;;48.15;30.63;;;13.80;52.20;;;;;;5061646;28;20422;-75
2022/03/18 12:45:38;;;;;;;45.13;31.33;;;13.80;52.60;;;;;;5070040;28;20392;-76
2022/03/18 12:48:06;;;;;;;36.95;26.00;;;13.80;52.20;;;;;;5024566;28;20047;-74
2022/03/18 12:50:39;;;;;;;34.92;25.77;;;13.50;52.20;;;;;;5065159;28;20067;-74
2022/03/18 12:53:12;;;;;;;50.08;31.20;;;13.20;52.10;;;;;;5066537;28;20035;-76
2022/03/18 12:55:38;;;;;;;77.47;44.60;;;12.90;54.10;;;;;;5057438;28;20108;-77